createdAt,value
2022-11-03T00:02:09.079Z,42.41
2022-11-03T00:07:30.754Z,42.79
2022-11-03T00:12:54.033Z,42.85
2022-11-03T00:18:15.667Z,42.84
2022-11-03T00:23:42.420Z,42.94
2022-11-03T00:29:09.930Z,42.66
2022-11-03T00:34:31.539Z,42.50
2022-11-03T00:39:53.150Z,42.55
2022-11-03T00:45:14.831Z,42.92
2022-11-03T00:50:36.488Z,42.56
2022-11-03T00:55:58.490Z,43.04
2022-11-03T01:01:28.869Z,42.53
2022-11-03T01:06:52.850Z,42.97
2022-11-03T01:12:19.015Z,42.96
2022-11-03T01:17:41.116Z,43.01
2022-11-03T01:23:02.925Z,42.61
2022-11-03T01:28:24.772Z,42.84
2022-11-03T01:33:47.578Z,42.62
2022-11-03T01:39:14.050Z,43.07
2022-11-03T01:44:37.537Z,42.67
2022-11-03T01:50:05.703Z,42.61
2022-11-03T01:55:32.536Z,42.96
2022-11-03T02:01:01.558Z,43.07
2022-11-03T02:06:27.727Z,43.11
2022-11-03T02:12:07.775Z,43.01
2022-11-03T02:17:31.595Z,42.72
2022-11-03T02:23:24.849Z,42.93
2022-11-03T02:28:46.889Z,42.74
2022-11-03T02:34:17.838Z,42.75
2022-11-03T02:39:46.483Z,42.72
2022-11-03T02:45:14.799Z,43.11
2022-11-03T02:50:39.093Z,42.84
2022-11-03T02:56:11.158Z,42.90
2022-11-03T03:01:48.504Z,42.74
2022-11-03T03:07:19.522Z,42.94
2022-11-03T03:12:47.023Z,43.00
2022-11-03T03:18:26.823Z,42.92
2022-11-03T03:24:13.249Z,42.56
2022-11-03T03:29:44.766Z,43.00
2022-11-03T03:35:10.077Z,42.87
2022-11-03T03:40:45.212Z,42.84
2022-11-03T03:46:10.455Z,42.97
2022-11-03T03:51:32.813Z,42.76
2022-11-03T03:57:03.026Z,43.04
2022-11-03T04:02:24.765Z,43.03
2022-11-03T04:07:49.023Z,43.13
2022-11-03T04:13:43.124Z,42.85
2022-11-03T04:19:23.157Z,42.80
2022-11-03T04:24:50.511Z,42.91
2022-11-03T04:30:20.703Z,42.82
2022-11-03T04:35:46.281Z,43.01
2022-11-03T04:41:13.175Z,43.04
2022-11-03T04:46:34.817Z,42.54
2022-11-03T04:51:56.474Z,42.92
2022-11-03T04:57:18.425Z,42.80
2022-11-03T05:02:40.112Z,42.91
2022-11-03T05:08:01.852Z,42.99
2022-11-03T05:13:25.512Z,42.44
2022-11-03T05:18:49.845Z,42.81
2022-11-03T05:29:38.976Z,42.76
2022-11-03T05:35:01.393Z,42.43
2022-11-03T05:40:26.131Z,42.34
2022-11-03T05:45:55.732Z,42.31
2022-11-03T05:51:24.388Z,42.27
2022-11-03T05:56:46.015Z,42.82
2022-11-03T06:02:28.891Z,42.32
2022-11-03T06:07:53.365Z,42.71
2022-11-03T06:13:19.932Z,42.88
2022-11-03T06:18:41.646Z,42.82
2022-11-03T06:24:03.308Z,42.83
2022-11-03T06:29:25.220Z,42.50
2022-11-03T06:34:50.354Z,42.89
2022-11-03T06:40:11.978Z,42.57
2022-11-03T06:45:33.691Z,42.60
2022-11-03T06:50:56.927Z,43.15
2022-11-03T06:56:22.730Z,42.96
2022-11-03T07:01:48.711Z,42.74
2022-11-03T07:07:10.517Z,42.81
2022-11-03T07:12:32.185Z,42.87
2022-11-03T07:17:54.613Z,42.91
2022-11-03T07:23:20.660Z,43.14
2022-11-03T07:28:42.519Z,43.15
2022-11-03T07:34:11.201Z,43.14
2022-11-03T07:39:37.484Z,43.21
2022-11-03T07:44:59.254Z,43.21
2022-11-03T07:50:21.230Z,43.01
2022-11-03T07:55:45.783Z,43.16
2022-11-03T08:01:37.900Z,43.07
2022-11-03T08:06:59.745Z,43.31
2022-11-03T08:12:21.953Z,43.22
2022-11-03T08:17:43.591Z,43.30
2022-11-03T08:23:24.598Z,43.04
2022-11-03T08:28:47.238Z,43.44
2022-11-03T08:34:09.139Z,43.27
2022-11-03T08:39:31.541Z,43.44
2022-11-03T08:44:53.129Z,43.26
2022-11-03T08:50:14.873Z,43.00
2022-11-03T08:55:36.539Z,42.94
2022-11-03T09:00:58.420Z,43.03
2022-11-03T09:06:20.072Z,43.06
2022-11-03T09:11:42.126Z,43.47
2022-11-03T09:22:45.310Z,43.49
2022-11-03T09:28:07.369Z,43.25
2022-11-03T09:33:29.288Z,43.15
2022-11-03T09:38:51.232Z,43.14
2022-11-03T09:44:13.099Z,43.12
2022-11-03T09:49:36.333Z,43.50
2022-11-03T09:54:59.839Z,43.24
2022-11-03T10:00:24.128Z,43.02
2022-11-03T10:05:46.540Z,43.52
2022-11-03T10:11:09.466Z,43.30
2022-11-03T10:16:31.165Z,43.42
2022-11-03T10:21:53.076Z,43.44
2022-11-03T10:27:23.342Z,42.99
2022-11-03T10:32:45.040Z,43.41
2022-11-03T10:38:27.465Z,43.03
2022-11-03T10:44:06.010Z,43.40
2022-11-03T10:49:30.480Z,43.17
2022-11-03T10:54:55.825Z,43.05
2022-11-03T11:00:18.181Z,43.06
2022-11-03T11:05:47.073Z,43.21
2022-11-03T11:11:08.781Z,42.94
2022-11-03T11:16:50.985Z,43.10
2022-11-03T11:22:14.021Z,42.71
2022-11-03T11:27:41.502Z,42.75
2022-11-03T11:33:22.336Z,42.69
2022-11-03T11:38:49.792Z,42.90
2022-11-03T11:44:39.511Z,43.04
2022-11-03T11:50:13.551Z,42.71
2022-11-03T11:55:38.648Z,43.18
2022-11-03T12:01:03.729Z,43.13
2022-11-03T12:06:37.081Z,42.95
2022-11-03T12:12:07.976Z,42.75
2022-11-03T12:17:30.356Z,43.11
2022-11-03T12:22:52.035Z,42.68
2022-11-03T12:28:30.851Z,42.65
2022-11-03T12:33:52.563Z,42.68
2022-11-03T12:39:14.250Z,43.11
2022-11-03T12:44:38.741Z,42.92
2022-11-03T12:50:04.635Z,43.12
2022-11-03T12:55:29.210Z,43.13
2022-11-03T13:00:54.971Z,43.00
2022-11-03T13:06:18.085Z,42.91
2022-11-03T13:11:58.559Z,42.92
2022-11-03T13:17:20.213Z,43.01
2022-11-03T13:22:42.167Z,42.66
2022-11-03T13:28:04.207Z,42.80
2022-11-03T13:33:25.993Z,43.12
2022-11-03T13:38:47.699Z,43.03
2022-11-03T13:44:09.427Z,42.95
2022-11-03T14:00:54.526Z,42.83
2022-11-03T14:06:16.228Z,43.14
2022-11-03T14:11:56.198Z,43.02
2022-11-03T14:17:17.969Z,42.88
2022-11-03T14:22:40.770Z,43.08
2022-11-03T14:28:02.560Z,42.92
2022-11-03T14:33:24.213Z,42.70
2022-11-03T14:38:49.906Z,43.16
2022-11-03T14:44:12.272Z,42.75
2022-11-03T14:49:35.081Z,42.70
2022-11-03T14:54:56.792Z,42.90
2022-11-03T15:00:18.727Z,42.70
2022-11-03T15:05:46.220Z,42.79
2022-11-03T15:11:10.046Z,42.70
2022-11-03T15:16:32.040Z,43.20
2022-11-03T15:21:53.680Z,43.12
2022-11-03T15:27:15.340Z,42.88
2022-11-03T15:32:37.083Z,43.16
2022-11-03T15:37:59.213Z,42.87
2022-11-03T15:43:20.973Z,42.97
2022-11-03T15:48:43.230Z,42.98
2022-11-03T15:54:04.901Z,43.08
2022-11-03T15:59:26.519Z,43.08
2022-11-03T16:04:48.738Z,42.86
2022-11-03T16:10:10.545Z,42.93
2022-11-03T16:15:32.343Z,43.11
2022-11-03T16:20:54.177Z,43.04
2022-11-03T16:26:16.018Z,42.97
2022-11-03T16:31:37.759Z,42.97
2022-11-03T16:37:00.856Z,43.54
2022-11-03T16:42:22.498Z,43.18
2022-11-03T16:47:44.962Z,43.62
2022-11-03T16:53:06.809Z,43.28
2022-11-03T16:58:28.569Z,43.74
2022-11-03T17:03:51.889Z,43.54
2022-11-03T17:09:13.551Z,43.72
2022-11-03T17:14:36.329Z,43.85
2022-11-03T17:19:58.098Z,43.54
2022-11-03T17:25:19.828Z,43.83
2022-11-03T17:30:41.519Z,43.97
2022-11-03T17:36:03.261Z,43.98
2022-11-03T17:41:24.925Z,43.80
2022-11-03T17:46:46.561Z,44.18
2022-11-03T17:52:29.127Z,44.08
2022-11-03T17:57:50.872Z,44.02
2022-11-03T18:03:16.158Z,44.09
2022-11-03T18:08:37.802Z,44.50
2022-11-03T18:14:00.873Z,44.40
2022-11-03T18:19:23.008Z,44.64
2022-11-03T18:24:44.753Z,44.53
2022-11-03T18:30:07.561Z,44.79
2022-11-03T18:35:33.345Z,44.34
2022-11-03T18:40:55.330Z,44.52
2022-11-03T18:46:17.030Z,44.35
2022-11-03T18:51:39.848Z,44.52
2022-11-03T18:57:02.122Z,43.88
2022-11-03T19:02:28.465Z,44.33
2022-11-03T19:07:50.757Z,44.37
2022-11-03T19:13:18.971Z,44.23
2022-11-03T19:18:42.027Z,44.09
2022-11-03T19:24:04.713Z,44.30
2022-11-03T19:29:31.069Z,44.88
2022-11-03T19:35:02.254Z,44.96
2022-11-03T19:40:23.942Z,45.04
2022-11-03T19:45:45.795Z,44.99
2022-11-03T19:51:07.734Z,45.28
2022-11-03T19:56:29.474Z,45.27
2022-11-03T20:01:51.232Z,45.43
2022-11-03T20:07:15.716Z,45.56
2022-11-03T20:12:37.355Z,45.50
2022-11-03T20:17:59.017Z,45.71
2022-11-03T20:23:26.373Z,45.44
2022-11-03T20:28:48.319Z,45.28
2022-11-03T20:34:14.076Z,45.25
2022-11-03T20:39:35.817Z,44.78
2022-11-03T20:44:57.453Z,44.74
2022-11-03T20:50:20.813Z,44.79
2022-11-03T20:55:43.176Z,44.94
2022-11-03T21:01:11.080Z,45.05
2022-11-03T21:06:32.999Z,44.78
2022-11-03T21:11:55.182Z,44.95
2022-11-03T21:17:35.357Z,45.32
2022-11-03T21:22:56.997Z,45.33
2022-11-03T21:28:20.246Z,45.19
2022-11-03T21:33:41.983Z,45.17
2022-11-03T21:39:04.536Z,45.64
2022-11-03T21:44:26.344Z,45.39
2022-11-03T21:49:48.892Z,45.32
2022-11-03T21:55:10.759Z,45.42
2022-11-03T22:00:33.090Z,45.45
2022-11-03T22:06:00.008Z,45.63
2022-11-03T22:11:21.653Z,45.71
2022-11-03T22:16:44.798Z,45.21
2022-11-03T22:22:30.265Z,45.34
2022-11-03T22:27:51.913Z,45.42
2022-11-03T22:33:13.599Z,45.19
2022-11-03T22:38:55.515Z,45.47
2022-11-03T22:44:35.942Z,45.57
2022-11-03T22:49:57.667Z,45.59
2022-11-03T22:55:19.338Z,45.40
2022-11-03T23:00:41.117Z,45.51
2022-11-03T23:06:05.926Z,45.63
2022-11-03T23:11:32.557Z,45.18
2022-11-03T23:16:54.228Z,45.07
2022-11-03T23:22:15.877Z,45.25
2022-11-03T23:27:37.523Z,45.06
2022-11-03T23:33:00.616Z,45.27
2022-11-03T23:38:22.249Z,45.31
2022-11-03T23:43:44.977Z,45.24
2022-11-03T23:49:07.276Z,45.44
2022-11-03T23:54:29.185Z,45.31
2022-11-03T23:59:50.849Z,45.30
